sensor_id;sensor_type;location;lat;lon;timestamp;P1;durP1;ratioP1;P2;durP2;ratioP2
29984;SDS011;17387;42.690;23.328;2023-08-21T00:01:17;9.52;;;7.07;;
29984;SDS011;17387;42.690;23.328;2023-08-21T00:03:42;12.27;;;7.60;;
29984;SDS011;17387;42.690;23.328;2023-08-21T00:06:08;8.13;;;6.97;;
29984;SDS011;17387;42.690;23.328;2023-08-21T00:08:33;11.70;;;7.13;;
29984;SDS011;17387;42.690;23.328;2023-08-21T00:10:58;7.30;;;6.15;;
29984;SDS011;17387;42.690;23.328;2023-08-21T00:13:23;7.45;;;6.65;;
29984;SDS011;17387;42.690;23.328;2023-08-21T00:15:49;9.00;;;6.60;;
29984;SDS011;17387;42.690;23.328;2023-08-21T00:18:14;8.90;;;6.93;;
29984;SDS011;17387;42.690;23.328;2023-08-21T00:20:39;13.38;;;6.93;;
29984;SDS011;17387;42.690;23.328;2023-08-21T00:23:06;13.70;;;6.82;;
29984;SDS011;17387;42.690;23.328;2023-08-21T00:25:31;10.57;;;7.23;;
29984;SDS011;17387;42.690;23.328;2023-08-21T00:27:57;10.47;;;7.50;;
29984;SDS011;17387;42.690;23.328;2023-08-21T00:30:22;9.60;;;6.77;;
29984;SDS011;17387;42.690;23.328;2023-08-21T00:32:47;11.57;;;7.60;;
29984;SDS011;17387;42.690;23.328;2023-08-21T00:35:12;12.00;;;7.00;;
29984;SDS011;17387;42.690;23.328;2023-08-21T00:37:38;8.80;;;7.13;;
29984;SDS011;17387;42.690;23.328;2023-08-21T00:40:03;8.13;;;7.17;;
29984;SDS011;17387;42.690;23.328;2023-08-21T00:42:28;10.02;;;7.32;;
29984;SDS011;17387;42.690;23.328;2023-08-21T00:44:53;10.73;;;7.27;;
29984;SDS011;17387;42.690;23.328;2023-08-21T00:47:19;10.37;;;8.00;;
29984;SDS011;17387;42.690;23.328;2023-08-21T00:49:47;10.43;;;7.30;;
29984;SDS011;17387;42.690;23.328;2023-08-21T00:52:12;8.65;;;7.45;;
29984;SDS011;17387;42.690;23.328;2023-08-21T00:54:39;12.65;;;7.82;;
29984;SDS011;17387;42.690;23.328;2023-08-21T00:57:04;12.57;;;7.85;;
29984;SDS011;17387;42.690;23.328;2023-08-21T00:59:30;11.27;;;7.95;;
29984;SDS011;17387;42.690;23.328;2023-08-21T01:01:55;11.68;;;7.97;;
29984;SDS011;17387;42.690;23.328;2023-08-21T01:04:20;10.30;;;7.70;;
29984;SDS011;17387;42.690;23.328;2023-08-21T01:06:46;9.90;;;7.85;;
29984;SDS011;17387;42.690;23.328;2023-08-21T01:12:06;10.13;;;7.90;;
29984;SDS011;17387;42.690;23.328;2023-08-21T01:14:45;12.63;;;9.00;;
29984;SDS011;17387;42.690;23.328;2023-08-21T01:17:13;11.75;;;7.28;;
29984;SDS011;17387;42.690;23.328;2023-08-21T01:19:46;11.35;;;7.40;;
29984;SDS011;17387;42.690;23.328;2023-08-21T01:22:12;9.15;;;7.88;;
29984;SDS011;17387;42.690;23.328;2023-08-21T01:24:38;10.90;;;8.10;;
29984;SDS011;17387;42.690;23.328;2023-08-21T01:27:03;12.32;;;7.80;;
29984;SDS011;17387;42.690;23.328;2023-08-21T01:29:28;12.27;;;7.97;;
29984;SDS011;17387;42.690;23.328;2023-08-21T01:31:58;9.98;;;7.65;;
29984;SDS011;17387;42.690;23.328;2023-08-21T01:34:26;9.35;;;8.35;;
29984;SDS011;17387;42.690;23.328;2023-08-21T01:36:52;11.30;;;8.02;;
29984;SDS011;17387;42.690;23.328;2023-08-21T01:39:18;13.35;;;8.80;;
29984;SDS011;17387;42.690;23.328;2023-08-21T01:41:43;11.77;;;8.38;;
29984;SDS011;17387;42.690;23.328;2023-08-21T01:44:09;10.20;;;8.13;;
29984;SDS011;17387;42.690;23.328;2023-08-21T01:46:34;10.65;;;8.10;;
29984;SDS011;17387;42.690;23.328;2023-08-21T01:48:59;10.80;;;8.07;;
29984;SDS011;17387;42.690;23.328;2023-08-21T01:51:24;10.37;;;8.83;;
29984;SDS011;17387;42.690;23.328;2023-08-21T01:53:50;13.18;;;8.13;;
29984;SDS011;17387;42.690;23.328;2023-08-21T01:56:15;11.10;;;8.67;;
29984;SDS011;17387;42.690;23.328;2023-08-21T01:58:40;16.00;;;8.70;;
29984;SDS011;17387;42.690;23.328;2023-08-21T02:01:05;16.90;;;9.73;;
29984;SDS011;17387;42.690;23.328;2023-08-21T02:03:30;11.20;;;8.68;;
29984;SDS011;17387;42.690;23.328;2023-08-21T02:05:56;14.33;;;8.43;;
29984;SDS011;17387;42.690;23.328;2023-08-21T02:08:26;10.70;;;8.63;;
29984;SDS011;17387;42.690;23.328;2023-08-21T02:10:52;10.95;;;9.35;;
29984;SDS011;17387;42.690;23.328;2023-08-21T02:13:18;12.27;;;8.98;;
29984;SDS011;17387;42.690;23.328;2023-08-21T02:15:43;11.10;;;8.70;;
29984;SDS011;17387;42.690;23.328;2023-08-21T02:18:08;16.17;;;9.40;;
29984;SDS011;17387;42.690;23.328;2023-08-21T02:20:34;12.68;;;9.48;;
29984;SDS011;17387;42.690;23.328;2023-08-21T02:22:59;14.53;;;8.90;;
29984;SDS011;17387;42.690;23.328;2023-08-21T02:25:24;13.20;;;9.47;;
29984;SDS011;17387;42.690;23.328;2023-08-21T02:27:50;14.37;;;9.10;;
29984;SDS011;17387;42.690;23.328;2023-08-21T02:30:15;13.50;;;9.47;;
29984;SDS011;17387;42.690;23.328;2023-08-21T02:32:40;13.80;;;9.48;;
29984;SDS011;17387;42.690;23.328;2023-08-21T02:35:06;12.93;;;9.33;;
29984;SDS011;17387;42.690;23.328;2023-08-21T02:37:31;15.30;;;9.75;;
29984;SDS011;17387;42.690;23.328;2023-08-21T02:39:56;13.70;;;9.47;;
29984;SDS011;17387;42.690;23.328;2023-08-21T02:42:22;13.73;;;9.88;;
29984;SDS011;17387;42.690;23.328;2023-08-21T02:44:47;14.90;;;9.77;;
29984;SDS011;17387;42.690;23.328;2023-08-21T02:47:12;16.70;;;9.20;;
29984;SDS011;17387;42.690;23.328;2023-08-21T02:49:37;18.43;;;9.53;;
29984;SDS011;17387;42.690;23.328;2023-08-21T02:52:03;14.27;;;9.10;;
29984;SDS011;17387;42.690;23.328;2023-08-21T02:54:28;13.20;;;9.07;;
29984;SDS011;17387;42.690;23.328;2023-08-21T02:56:53;18.27;;;9.20;;
29984;SDS011;17387;42.690;23.328;2023-08-21T02:59:18;16.20;;;9.85;;
29984;SDS011;17387;42.690;23.328;2023-08-21T03:01:44;11.52;;;9.05;;
29984;SDS011;17387;42.690;23.328;2023-08-21T03:04:09;9.73;;;8.67;;
29984;SDS011;17387;42.690;23.328;2023-08-21T03:06:34;11.90;;;8.95;;
29984;SDS011;17387;42.690;23.328;2023-08-21T03:08:59;14.18;;;9.77;;
29984;SDS011;17387;42.690;23.328;2023-08-21T03:11:25;11.50;;;9.10;;
29984;SDS011;17387;42.690;23.328;2023-08-21T03:13:50;12.57;;;9.38;;
29984;SDS011;17387;42.690;23.328;2023-08-21T03:16:15;10.87;;;9.13;;
29984;SDS011;17387;42.690;23.328;2023-08-21T03:18:54;14.88;;;9.35;;
29984;SDS011;17387;42.690;23.328;2023-08-21T03:21:20;14.75;;;8.90;;
29984;SDS011;17387;42.690;23.328;2023-08-21T03:23:45;16.58;;;9.20;;
29984;SDS011;17387;42.690;23.328;2023-08-21T03:26:10;12.20;;;8.70;;
29984;SDS011;17387;42.690;23.328;2023-08-21T03:28:36;16.67;;;9.57;;
29984;SDS011;17387;42.690;23.328;2023-08-21T03:31:01;16.37;;;8.93;;
29984;SDS011;17387;42.690;23.328;2023-08-21T03:33:26;13.73;;;9.50;;
29984;SDS011;17387;42.690;23.328;2023-08-21T03:35:54;16.00;;;9.20;;
29984;SDS011;17387;42.690;23.328;2023-08-21T03:38:20;12.82;;;9.02;;
29984;SDS011;17387;42.690;23.328;2023-08-21T03:40:45;12.50;;;9.10;;
29984;SDS011;17387;42.690;23.328;2023-08-21T03:43:11;14.25;;;10.15;;
29984;SDS011;17387;42.690;23.328;2023-08-21T03:45:36;13.10;;;9.23;;
29984;SDS011;17387;42.690;23.328;2023-08-21T03:48:01;14.40;;;9.20;;
29984;SDS011;17387;42.690;23.328;2023-08-21T03:50:27;17.23;;;10.93;;
29984;SDS011;17387;42.690;23.328;2023-08-21T03:52:52;12.13;;;9.50;;
29984;SDS011;17387;42.690;23.328;2023-08-21T03:55:17;15.27;;;9.53;;
29984;SDS011;17387;42.690;23.328;2023-08-21T03:57:42;14.50;;;10.13;;
29984;SDS011;17387;42.690;23.328;2023-08-21T04:00:08;15.00;;;10.03;;
29984;SDS011;17387;42.690;23.328;2023-08-21T04:02:34;16.42;;;10.10;;
29984;SDS011;17387;42.690;23.328;2023-08-21T04:04:59;11.77;;;9.50;;
29984;SDS011;17387;42.690;23.328;2023-08-21T04:07:24;12.23;;;9.63;;
29984;SDS011;17387;42.690;23.328;2023-08-21T04:09:49;20.83;;;10.47;;
29984;SDS011;17387;42.690;23.328;2023-08-21T04:12:15;12.73;;;9.80;;
29984;SDS011;17387;42.690;23.328;2023-08-21T04:14:40;13.97;;;9.57;;
29984;SDS011;17387;42.690;23.328;2023-08-21T04:17:05;12.23;;;9.50;;
29984;SDS011;17387;42.690;23.328;2023-08-21T04:19:30;14.40;;;9.67;;
29984;SDS011;17387;42.690;23.328;2023-08-21T04:21:58;14.45;;;10.25;;
29984;SDS011;17387;42.690;23.328;2023-08-21T04:24:24;15.52;;;10.63;;
29984;SDS011;17387;42.690;23.328;2023-08-21T04:26:49;12.33;;;9.90;;
29984;SDS011;17387;42.690;23.328;2023-08-21T04:29:14;15.00;;;9.33;;
29984;SDS011;17387;42.690;23.328;2023-08-21T04:31:39;15.35;;;10.35;;
29984;SDS011;17387;42.690;23.328;2023-08-21T04:34:05;17.67;;;10.10;;
29984;SDS011;17387;42.690;23.328;2023-08-21T04:36:30;15.65;;;9.73;;
29984;SDS011;17387;42.690;23.328;2023-08-21T04:38:56;14.83;;;10.00;;
29984;SDS011;17387;42.690;23.328;2023-08-21T04:41:21;17.60;;;12.38;;
29984;SDS011;17387;42.690;23.328;2023-08-21T04:43:46;14.37;;;11.10;;
29984;SDS011;17387;42.690;23.328;2023-08-21T04:46:11;14.52;;;10.20;;
29984;SDS011;17387;42.690;23.328;2023-08-21T04:48:36;21.27;;;14.00;;
29984;SDS011;17387;42.690;23.328;2023-08-21T04:51:02;16.90;;;11.07;;
29984;SDS011;17387;42.690;23.328;2023-08-21T04:53:27;15.63;;;11.03;;
29984;SDS011;17387;42.690;23.328;2023-08-21T04:55:52;18.77;;;10.43;;
29984;SDS011;17387;42.690;23.328;2023-08-21T04:58:17;14.60;;;10.37;;
29984;SDS011;17387;42.690;23.328;2023-08-21T05:00:44;17.53;;;10.80;;
29984;SDS011;17387;42.690;23.328;2023-08-21T05:03:09;23.35;;;14.40;;
29984;SDS011;17387;42.690;23.328;2023-08-21T05:05:35;15.02;;;11.52;;
29984;SDS011;17387;42.690;23.328;2023-08-21T05:08:00;18.02;;;10.60;;
29984;SDS011;17387;42.690;23.328;2023-08-21T05:10:26;17.40;;;11.48;;
29984;SDS011;17387;42.690;23.328;2023-08-21T05:12:51;18.80;;;10.63;;
29984;SDS011;17387;42.690;23.328;2023-08-21T05:15:16;15.55;;;10.80;;
29984;SDS011;17387;42.690;23.328;2023-08-21T05:17:41;15.43;;;9.95;;
29984;SDS011;17387;42.690;23.328;2023-08-21T05:20:07;13.07;;;9.93;;
29984;SDS011;17387;42.690;23.328;2023-08-21T05:22:32;15.98;;;9.48;;
29984;SDS011;17387;42.690;23.328;2023-08-21T05:24:57;18.63;;;9.23;;
29984;SDS011;17387;42.690;23.328;2023-08-21T05:27:23;19.87;;;11.00;;
29984;SDS011;17387;42.690;23.328;2023-08-21T05:29:48;16.42;;;10.10;;
29984;SDS011;17387;42.690;23.328;2023-08-21T05:32:15;16.88;;;10.50;;
29984;SDS011;17387;42.690;23.328;2023-08-21T05:34:41;15.00;;;9.43;;
29984;SDS011;17387;42.690;23.328;2023-08-21T05:37:06;19.83;;;10.60;;
29984;SDS011;17387;42.690;23.328;2023-08-21T05:39:32;21.65;;;10.02;;
29984;SDS011;17387;42.690;23.328;2023-08-21T05:41:57;16.60;;;10.70;;
29984;SDS011;17387;42.690;23.328;2023-08-21T05:44:23;14.38;;;10.02;;
29984;SDS011;17387;42.690;23.328;2023-08-21T05:46:48;22.47;;;9.40;;
29984;SDS011;17387;42.690;23.328;2023-08-21T05:49:14;12.27;;;8.73;;
29984;SDS011;17387;42.690;23.328;2023-08-21T05:51:39;13.60;;;9.30;;
29984;SDS011;17387;42.690;23.328;2023-08-21T05:54:04;14.97;;;9.67;;
29984;SDS011;17387;42.690;23.328;2023-08-21T05:56:31;17.02;;;8.82;;
29984;SDS011;17387;42.690;23.328;2023-08-21T05:58:56;15.10;;;9.07;;
29984;SDS011;17387;42.690;23.328;2023-08-21T06:01:21;15.20;;;8.60;;
29984;SDS011;17387;42.690;23.328;2023-08-21T06:03:46;13.17;;;7.33;;
29984;SDS011;17387;42.690;23.328;2023-08-21T06:06:12;12.88;;;7.25;;
29984;SDS011;17387;42.690;23.328;2023-08-21T06:08:37;8.88;;;7.13;;
29984;SDS011;17387;42.690;23.328;2023-08-21T06:11:02;14.32;;;7.60;;
29984;SDS011;17387;42.690;23.328;2023-08-21T06:13:28;12.68;;;8.35;;
29984;SDS011;17387;42.690;23.328;2023-08-21T06:15:53;13.82;;;9.05;;
29984;SDS011;17387;42.690;23.328;2023-08-21T06:18:22;14.43;;;8.90;;
29984;SDS011;17387;42.690;23.328;2023-08-21T06:20:48;13.32;;;8.43;;
29984;SDS011;17387;42.690;23.328;2023-08-21T06:23:13;14.60;;;9.25;;
29984;SDS011;17387;42.690;23.328;2023-08-21T06:25:38;14.70;;;8.13;;
29984;SDS011;17387;42.690;23.328;2023-08-21T06:28:03;14.10;;;8.27;;
29984;SDS011;17387;42.690;23.328;2023-08-21T06:30:29;14.70;;;8.50;;
29984;SDS011;17387;42.690;23.328;2023-08-21T06:32:55;13.07;;;8.03;;
29984;SDS011;17387;42.690;23.328;2023-08-21T06:35:20;16.05;;;8.80;;
29984;SDS011;17387;42.690;23.328;2023-08-21T06:37:45;14.93;;;8.10;;
29984;SDS011;17387;42.690;23.328;2023-08-21T06:40:10;12.30;;;8.80;;
29984;SDS011;17387;42.690;23.328;2023-08-21T06:42:36;12.40;;;9.00;;
29984;SDS011;17387;42.690;23.328;2023-08-21T06:45:02;9.05;;;7.75;;
29984;SDS011;17387;42.690;23.328;2023-08-21T06:47:28;12.77;;;8.10;;
29984;SDS011;17387;42.690;23.328;2023-08-21T06:49:53;21.25;;;9.05;;
29984;SDS011;17387;42.690;23.328;2023-08-21T06:52:19;15.33;;;8.70;;
29984;SDS011;17387;42.690;23.328;2023-08-21T06:54:44;19.27;;;9.33;;
29984;SDS011;17387;42.690;23.328;2023-08-21T06:57:09;16.17;;;9.10;;
29984;SDS011;17387;42.690;23.328;2023-08-21T06:59:34;13.63;;;9.60;;
29984;SDS011;17387;42.690;23.328;2023-08-21T07:02:01;13.77;;;9.35;;
29984;SDS011;17387;42.690;23.328;2023-08-21T07:04:27;19.40;;;9.30;;
29984;SDS011;17387;42.690;23.328;2023-08-21T07:06:52;11.75;;;8.55;;
29984;SDS011;17387;42.690;23.328;2023-08-21T07:09:18;15.93;;;9.30;;
29984;SDS011;17387;42.690;23.328;2023-08-21T07:11:43;16.50;;;8.20;;
29984;SDS011;17387;42.690;23.328;2023-08-21T07:14:08;13.00;;;8.03;;
29984;SDS011;17387;42.690;23.328;2023-08-21T07:16:33;15.53;;;8.70;;
29984;SDS011;17387;42.690;23.328;2023-08-21T07:18:59;12.53;;;7.93;;
29984;SDS011;17387;42.690;23.328;2023-08-21T07:21:24;15.40;;;8.87;;
29984;SDS011;17387;42.690;23.328;2023-08-21T07:23:49;14.30;;;7.97;;
29984;SDS011;17387;42.690;23.328;2023-08-21T07:26:14;12.07;;;7.80;;
29984;SDS011;17387;42.690;23.328;2023-08-21T07:28:40;17.20;;;8.37;;
29984;SDS011;17387;42.690;23.328;2023-08-21T07:31:05;13.03;;;7.50;;
29984;SDS011;17387;42.690;23.328;2023-08-21T07:33:30;12.00;;;7.70;;
29984;SDS011;17387;42.690;23.328;2023-08-21T07:36:03;10.27;;;7.93;;
29984;SDS011;17387;42.690;23.328;2023-08-21T07:38:28;14.07;;;8.40;;
29984;SDS011;17387;42.690;23.328;2023-08-21T07:41:03;11.30;;;7.70;;
29984;SDS011;17387;42.690;23.328;2023-08-21T07:43:29;22.58;;;12.90;;
29984;SDS011;17387;42.690;23.328;2023-08-21T07:45:55;10.07;;;7.65;;
29984;SDS011;17387;42.690;23.328;2023-08-21T07:48:20;18.77;;;12.35;;
29984;SDS011;17387;42.690;23.328;2023-08-21T07:50:51;16.17;;;8.70;;
29984;SDS011;17387;42.690;23.328;2023-08-21T07:53:17;10.23;;;7.53;;
29984;SDS011;17387;42.690;23.328;2023-08-21T07:55:43;17.42;;;8.93;;
29984;SDS011;17387;42.690;23.328;2023-08-21T07:58:08;17.60;;;8.17;;
29984;SDS011;17387;42.690;23.328;2023-08-21T08:00:33;16.37;;;9.13;;
29984;SDS011;17387;42.690;23.328;2023-08-21T08:02:58;12.37;;;8.00;;
29984;SDS011;17387;42.690;23.328;2023-08-21T08:05:24;13.77;;;7.93;;
29984;SDS011;17387;42.690;23.328;2023-08-21T08:07:49;10.07;;;7.10;;
29984;SDS011;17387;42.690;23.328;2023-08-21T08:10:14;11.90;;;7.47;;
29984;SDS011;17387;42.690;23.328;2023-08-21T08:12:41;14.98;;;8.10;;
29984;SDS011;17387;42.690;23.328;2023-08-21T08:15:07;15.23;;;8.38;;
29984;SDS011;17387;42.690;23.328;2023-08-21T08:17:32;13.57;;;9.48;;
29984;SDS011;17387;42.690;23.328;2023-08-21T08:19:57;15.48;;;9.60;;
29984;SDS011;17387;42.690;23.328;2023-08-21T08:22:23;9.77;;;7.07;;
29984;SDS011;17387;42.690;23.328;2023-08-21T08:24:48;8.60;;;7.70;;
29984;SDS011;17387;42.690;23.328;2023-08-21T08:27:13;10.40;;;6.80;;
29984;SDS011;17387;42.690;23.328;2023-08-21T08:29:38;11.33;;;6.73;;
29984;SDS011;17387;42.690;23.328;2023-08-21T08:32:03;9.63;;;6.40;;
29984;SDS011;17387;42.690;23.328;2023-08-21T08:34:29;10.20;;;6.45;;
29984;SDS011;17387;42.690;23.328;2023-08-21T08:36:54;10.43;;;6.27;;
29984;SDS011;17387;42.690;23.328;2023-08-21T08:39:19;11.27;;;7.10;;
29984;SDS011;17387;42.690;23.328;2023-08-21T08:41:56;14.20;;;6.90;;
29984;SDS011;17387;42.690;23.328;2023-08-21T08:44:23;12.60;;;9.30;;
29984;SDS011;17387;42.690;23.328;2023-08-21T08:46:49;10.15;;;7.95;;
29984;SDS011;17387;42.690;23.328;2023-08-21T08:49:15;9.38;;;6.25;;
29984;SDS011;17387;42.690;23.328;2023-08-21T08:51:40;9.38;;;6.80;;
29984;SDS011;17387;42.690;23.328;2023-08-21T08:54:06;11.95;;;7.20;;
29984;SDS011;17387;42.690;23.328;2023-08-21T08:56:32;11.70;;;7.15;;
29984;SDS011;17387;42.690;23.328;2023-08-21T08:58:57;14.93;;;6.90;;
29984;SDS011;17387;42.690;23.328;2023-08-21T09:01:23;9.17;;;6.10;;
29984;SDS011;17387;42.690;23.328;2023-08-21T09:03:48;9.70;;;7.53;;
29984;SDS011;17387;42.690;23.328;2023-08-21T09:06:15;7.13;;;6.13;;
29984;SDS011;17387;42.690;23.328;2023-08-21T09:08:42;10.40;;;6.60;;
29984;SDS011;17387;42.690;23.328;2023-08-21T09:11:17;6.63;;;5.55;;
29984;SDS011;17387;42.690;23.328;2023-08-21T09:13:43;12.68;;;7.53;;
29984;SDS011;17387;42.690;23.328;2023-08-21T09:16:08;6.67;;;5.30;;
29984;SDS011;17387;42.690;23.328;2023-08-21T09:18:34;7.53;;;5.80;;
29984;SDS011;17387;42.690;23.328;2023-08-21T09:21:01;9.23;;;6.10;;
29984;SDS011;17387;42.690;23.328;2023-08-21T09:23:27;9.48;;;5.55;;
29984;SDS011;17387;42.690;23.328;2023-08-21T09:25:53;9.07;;;5.65;;
29984;SDS011;17387;42.690;23.328;2023-08-21T09:28:19;8.02;;;5.55;;
29984;SDS011;17387;42.690;23.328;2023-08-21T09:30:48;10.43;;;5.97;;
29984;SDS011;17387;42.690;23.328;2023-08-21T09:33:14;11.60;;;7.90;;
29984;SDS011;17387;42.690;23.328;2023-08-21T09:35:41;14.82;;;5.90;;
29984;SDS011;17387;42.690;23.328;2023-08-21T09:38:07;11.30;;;6.68;;
29984;SDS011;17387;42.690;23.328;2023-08-21T09:40:32;11.05;;;5.93;;
29984;SDS011;17387;42.690;23.328;2023-08-21T09:42:58;11.17;;;5.27;;
29984;SDS011;17387;42.690;23.328;2023-08-21T09:45:24;11.65;;;5.63;;
29984;SDS011;17387;42.690;23.328;2023-08-21T09:47:50;12.20;;;5.47;;
29984;SDS011;17387;42.690;23.328;2023-08-21T09:50:16;8.07;;;5.70;;
29984;SDS011;17387;42.690;23.328;2023-08-21T09:52:42;10.90;;;7.05;;
29984;SDS011;17387;42.690;23.328;2023-08-21T09:55:08;8.88;;;5.60;;
29984;SDS011;17387;42.690;23.328;2023-08-21T09:57:34;6.60;;;5.15;;
29984;SDS011;17387;42.690;23.328;2023-08-21T10:00:00;9.57;;;6.05;;
29984;SDS011;17387;42.690;23.328;2023-08-21T10:02:26;9.75;;;5.25;;
29984;SDS011;17387;42.690;23.328;2023-08-21T10:04:52;9.13;;;5.70;;
29984;SDS011;17387;42.690;23.328;2023-08-21T10:07:20;8.40;;;6.28;;
29984;SDS011;17387;42.690;23.328;2023-08-21T10:09:47;18.50;;;6.60;;
29984;SDS011;17387;42.690;23.328;2023-08-21T10:12:13;8.93;;;5.53;;
29984;SDS011;17387;42.690;23.328;2023-08-21T10:14:39;7.38;;;6.03;;
29984;SDS011;17387;42.690;23.328;2023-08-21T10:17:04;8.90;;;6.43;;
29984;SDS011;17387;42.690;23.328;2023-08-21T10:19:34;10.13;;;6.03;;
29984;SDS011;17387;42.690;23.328;2023-08-21T10:21:59;8.57;;;5.57;;
29984;SDS011;17387;42.690;23.328;2023-08-21T10:24:28;9.83;;;5.63;;
29984;SDS011;17387;42.690;23.328;2023-08-21T10:26:53;10.57;;;5.45;;
29984;SDS011;17387;42.690;23.328;2023-08-21T10:29:19;7.40;;;5.88;;
29984;SDS011;17387;42.690;23.328;2023-08-21T10:31:45;5.88;;;5.25;;
29984;SDS011;17387;42.690;23.328;2023-08-21T10:34:11;6.77;;;5.13;;
29984;SDS011;17387;42.690;23.328;2023-08-21T10:39:01;8.50;;;5.07;;
29984;SDS011;17387;42.690;23.328;2023-08-21T10:41:27;7.25;;;4.55;;
29984;SDS011;17387;42.690;23.328;2023-08-21T10:43:52;7.07;;;5.00;;
29984;SDS011;17387;42.690;23.328;2023-08-21T10:46:17;6.17;;;5.13;;
29984;SDS011;17387;42.690;23.328;2023-08-21T10:48:42;7.27;;;5.00;;
29984;SDS011;17387;42.690;23.328;2023-08-21T10:51:08;7.10;;;5.90;;
29984;SDS011;17387;42.690;23.328;2023-08-21T10:53:34;7.82;;;4.57;;
29984;SDS011;17387;42.690;23.328;2023-08-21T10:56:02;9.57;;;5.70;;
29984;SDS011;17387;42.690;23.328;2023-08-21T10:58:28;14.23;;;6.10;;
29984;SDS011;17387;42.690;23.328;2023-08-21T11:00:57;6.22;;;4.90;;
29984;SDS011;17387;42.690;23.328;2023-08-21T11:03:23;9.80;;;7.70;;
29984;SDS011;17387;42.690;23.328;2023-08-21T11:08:26;7.80;;;5.20;;
29984;SDS011;17387;42.690;23.328;2023-08-21T11:10:51;8.30;;;5.43;;
29984;SDS011;17387;42.690;23.328;2023-08-21T11:13:16;9.63;;;5.47;;
29984;SDS011;17387;42.690;23.328;2023-08-21T11:15:41;9.47;;;6.53;;
29984;SDS011;17387;42.690;23.328;2023-08-21T11:18:07;9.00;;;5.15;;
29984;SDS011;17387;42.690;23.328;2023-08-21T11:20:33;5.20;;;4.77;;
29984;SDS011;17387;42.690;23.328;2023-08-21T11:23:02;9.52;;;5.63;;
29984;SDS011;17387;42.690;23.328;2023-08-21T11:25:30;7.47;;;5.15;;
29984;SDS011;17387;42.690;23.328;2023-08-21T11:27:56;9.38;;;5.53;;
29984;SDS011;17387;42.690;23.328;2023-08-21T11:30:24;6.95;;;4.75;;
29984;SDS011;17387;42.690;23.328;2023-08-21T11:33:04;8.85;;;5.10;;
29984;SDS011;17387;42.690;23.328;2023-08-21T11:35:29;9.40;;;5.00;;
29984;SDS011;17387;42.690;23.328;2023-08-21T11:37:54;5.32;;;4.75;;
29984;SDS011;17387;42.690;23.328;2023-08-21T11:40:19;6.83;;;5.27;;
29984;SDS011;17387;42.690;23.328;2023-08-21T11:42:45;7.83;;;5.43;;
29984;SDS011;17387;42.690;23.328;2023-08-21T11:45:10;8.27;;;5.20;;
29984;SDS011;17387;42.690;23.328;2023-08-21T11:47:36;8.82;;;4.93;;
29984;SDS011;17387;42.690;23.328;2023-08-21T11:50:02;7.57;;;5.20;;
29984;SDS011;17387;42.690;23.328;2023-08-21T11:52:29;5.60;;;4.78;;
29984;SDS011;17387;42.690;23.328;2023-08-21T11:54:55;5.72;;;4.75;;
29984;SDS011;17387;42.690;23.328;2023-08-21T11:57:21;6.83;;;4.57;;
29984;SDS011;17387;42.690;23.328;2023-08-21T11:59:50;4.78;;;4.28;;
29984;SDS011;17387;42.690;23.328;2023-08-21T12:02:17;7.22;;;4.95;;
29984;SDS011;17387;42.690;23.328;2023-08-21T12:04:42;8.57;;;5.20;;
29984;SDS011;17387;42.690;23.328;2023-08-21T12:07:08;8.35;;;5.15;;
29984;SDS011;17387;42.690;23.328;2023-08-21T12:09:33;8.30;;;4.88;;
29984;SDS011;17387;42.690;23.328;2023-08-21T12:11:59;5.23;;;4.10;;
29984;SDS011;17387;42.690;23.328;2023-08-21T12:14:24;7.30;;;4.65;;
29984;SDS011;17387;42.690;23.328;2023-08-21T12:16:50;7.90;;;5.47;;
29984;SDS011;17387;42.690;23.328;2023-08-21T12:19:15;8.33;;;5.27;;
29984;SDS011;17387;42.690;23.328;2023-08-21T12:21:40;7.70;;;5.70;;
29984;SDS011;17387;42.690;23.328;2023-08-21T12:24:05;6.53;;;5.83;;
29984;SDS011;17387;42.690;23.328;2023-08-21T12:26:31;9.60;;;5.55;;
29984;SDS011;17387;42.690;23.328;2023-08-21T12:28:57;9.63;;;5.03;;
29984;SDS011;17387;42.690;23.328;2023-08-21T12:31:22;6.77;;;4.90;;
29984;SDS011;17387;42.690;23.328;2023-08-21T12:33:47;8.87;;;5.83;;
29984;SDS011;17387;42.690;23.328;2023-08-21T12:36:12;7.15;;;5.43;;
29984;SDS011;17387;42.690;23.328;2023-08-21T12:38:38;7.90;;;5.13;;
29984;SDS011;17387;42.690;23.328;2023-08-21T12:41:03;9.93;;;4.90;;
29984;SDS011;17387;42.690;23.328;2023-08-21T12:43:28;5.00;;;4.27;;
29984;SDS011;17387;42.690;23.328;2023-08-21T12:45:53;6.27;;;4.83;;
29984;SDS011;17387;42.690;23.328;2023-08-21T12:48:19;8.02;;;5.25;;
29984;SDS011;17387;42.690;23.328;2023-08-21T12:50:44;10.43;;;5.10;;
29984;SDS011;17387;42.690;23.328;2023-08-21T12:53:09;6.17;;;4.80;;
29984;SDS011;17387;42.690;23.328;2023-08-21T12:55:34;8.03;;;5.67;;
29984;SDS011;17387;42.690;23.328;2023-08-21T12:58:00;7.43;;;4.78;;
29984;SDS011;17387;42.690;23.328;2023-08-21T13:00:26;12.57;;;5.77;;
29984;SDS011;17387;42.690;23.328;2023-08-21T13:02:51;6.20;;;4.80;;
29984;SDS011;17387;42.690;23.328;2023-08-21T13:05:16;6.70;;;4.57;;
29984;SDS011;17387;42.690;23.328;2023-08-21T13:07:41;6.63;;;4.97;;
29984;SDS011;17387;42.690;23.328;2023-08-21T13:10:07;8.07;;;4.90;;
29984;SDS011;17387;42.690;23.328;2023-08-21T13:12:33;7.70;;;4.90;;
29984;SDS011;17387;42.690;23.328;2023-08-21T13:14:58;6.50;;;4.80;;
29984;SDS011;17387;42.690;23.328;2023-08-21T13:17:24;6.87;;;4.53;;
29984;SDS011;17387;42.690;23.328;2023-08-21T13:19:49;8.50;;;4.73;;
29984;SDS011;17387;42.690;23.328;2023-08-21T13:22:16;5.30;;;4.37;;
29984;SDS011;17387;42.690;23.328;2023-08-21T13:24:41;6.68;;;4.72;;
29984;SDS011;17387;42.690;23.328;2023-08-21T13:27:06;6.47;;;5.30;;
29984;SDS011;17387;42.690;23.328;2023-08-21T13:29:31;4.93;;;4.33;;
29984;SDS011;17387;42.690;23.328;2023-08-21T13:31:57;5.65;;;4.65;;
29984;SDS011;17387;42.690;23.328;2023-08-21T13:34:22;8.27;;;4.50;;
29984;SDS011;17387;42.690;23.328;2023-08-21T13:36:47;9.43;;;7.77;;
29984;SDS011;17387;42.690;23.328;2023-08-21T13:39:12;8.23;;;5.40;;
29984;SDS011;17387;42.690;23.328;2023-08-21T13:41:40;16.42;;;10.88;;
29984;SDS011;17387;42.690;23.328;2023-08-21T13:44:05;6.23;;;4.70;;
29984;SDS011;17387;42.690;23.328;2023-08-21T13:46:32;7.00;;;6.07;;
29984;SDS011;17387;42.690;23.328;2023-08-21T13:48:57;10.65;;;8.55;;
29984;SDS011;17387;42.690;23.328;2023-08-21T13:51:22;7.80;;;4.23;;
29984;SDS011;17387;42.690;23.328;2023-08-21T13:53:48;11.23;;;4.83;;
29984;SDS011;17387;42.690;23.328;2023-08-21T13:56:13;6.53;;;5.43;;
29984;SDS011;17387;42.690;23.328;2023-08-21T13:58:38;5.23;;;4.73;;
29984;SDS011;17387;42.690;23.328;2023-08-21T14:01:03;7.73;;;5.27;;
29984;SDS011;17387;42.690;23.328;2023-08-21T14:03:29;10.37;;;7.60;;
29984;SDS011;17387;42.690;23.328;2023-08-21T14:05:54;8.67;;;4.73;;
29984;SDS011;17387;42.690;23.328;2023-08-21T14:08:19;5.17;;;4.23;;
29984;SDS011;17387;42.690;23.328;2023-08-21T14:10:44;6.63;;;4.77;;
29984;SDS011;17387;42.690;23.328;2023-08-21T14:13:10;5.90;;;5.40;;
29984;SDS011;17387;42.690;23.328;2023-08-21T14:15:35;8.38;;;4.85;;
29984;SDS011;17387;42.690;23.328;2023-08-21T14:18:00;7.40;;;5.73;;
29984;SDS011;17387;42.690;23.328;2023-08-21T14:20:26;5.95;;;4.55;;
29984;SDS011;17387;42.690;23.328;2023-08-21T14:22:51;7.47;;;5.90;;
29984;SDS011;17387;42.690;23.328;2023-08-21T14:25:17;5.33;;;4.70;;